Latest Weather Observations for Warwick

IDQ60901

Issued at 8:55 pm EST Friday 28 November 2014 (issued every 10 minutes, with the page automatically refreshed every 10 minutes)

About weather observations | Map of Brisbane area stations | Latest observations for Brisbane area | Other Formats
Station Details ID: 041525 Name: WARWICK Lat: -28.21 Lon: 152.10 Height: 475.4 m
Data from the previous 72 hours. | See also: Recent months at Warwick
Date/Time
EST
Tmp

°C
App
Tmp
°C
Dew
Point
°C
Rel
Hum
%
Delta-T

°C
Wind Press
QNH
hPa
Press
MSL
hPa
Rain
since
9 am
mm
Dir
 
Spd
km/h
Gust
km/h
Spd
kts
Gust
kts
28/08:30pm 18.3 17.4 12.5 69 3.3 ENE 9 13 5 7 1020.0 1018.0 0.0
28/08:00pm 18.7 18.4 12.6 67 3.5 E 6 9 3 5 1019.9 1017.9 0.0
28/07:30pm 19.2 18.6 12.4 64 3.9 ESE 7 11 4 6 1019.7 1017.6 0.0
28/07:00pm 19.6 18.1 12.0 61 4.3 ESE 11 17 6 9 1019.3 1017.3 0.0
28/06:30pm 20.5 18.1 11.3 55 5.2 ESE 15 24 8 13 1019.1 1017.1 0.0
28/06:00pm 21.3 19.1 12.0 55 5.3 E 15 22 8 12 1018.8 1016.8 0.0
28/05:30pm 22.5 20.8 12.5 53 5.8 ESE 13 20 7 11 1018.6 1016.6 0.0
28/05:00pm 22.3 19.7 12.0 52 5.9 ESE 17 28 9 15 1018.3 1016.3 0.0
28/04:30pm 22.1 20.0 12.4 54 5.6 E 15 28 8 15 1018.3 1016.3 0.0
28/04:00pm 22.2 19.5 13.6 58 5.1 E 20 32 11 17 1018.4 1016.4 0.0
28/03:30pm 22.8 20.9 12.9 53 5.8 ESE 15 24 8 13 1018.8 1016.8 0.0
28/03:00pm 22.2 19.9 13.0 56 5.4 ESE 17 30 9 16 1019.2 1017.2 0.0
28/02:30pm 22.6 19.6 13.6 56 5.3 ESE 22 37 12 20 1019.2 1017.2 0.0
28/02:00pm 22.5 19.6 14.1 59 5.0 SE 22 39 12 21 1019.3 1017.3 0.0
28/01:30pm 23.3 20.8 13.5 54 5.8 ESE 19 28 10 15 1019.7 1017.6 0.0
28/01:00pm 24.1 21.6 14.1 53 6.0 SE 20 33 11 18 1019.7 1017.6 0.0
28/12:30pm 22.6 19.8 14.2 59 5.0 SE 22 33 12 18 1020.1 1018.1 0.0
28/12:00pm 24.2 21.8 14.4 54 5.9 SE 20 37 11 20 1020.3 1018.3 0.0
28/11:30am 23.3 20.8 15.1 60 5.0 SE 22 35 12 19 1020.6 1018.6 0.0
28/11:00am 21.6 18.6 14.8 65 4.1 SE 24 37 13 20 1020.8 1018.8 0.0
28/10:30am 22.4 19.4 14.9 62 4.5 SE 24 39 13 21 1020.7 1018.7 0.0
28/10:00am 21.8 18.7 14.6 63 4.3 SE 24 43 13 23 1020.7 1018.7 0.0
28/09:30am 20.6 17.2 14.7 69 3.5 SSE 26 37 14 20 1020.7 1018.7 0.0
28/09:00am 19.5 16.4 14.6 73 2.9 SSE 24 37 13 20 1020.8 1018.8 0.0
28/08:30am 20.5 17.8 14.6 69 3.5 SE 22 35 12 19 1020.8 1018.8 0.0
28/08:00am 18.3 15.2 14.4 78 2.3 SE 24 35 13 19 1020.6 1018.6 0.0
28/07:30am 18.1 15.4 14.5 79 2.1 SSE 22 37 12 20 1020.6 1018.6 0.0
28/07:00am 17.7 15.3 14.5 81 1.9 SSE 20 33 11 18 1020.3 1018.3 0.0
28/06:30am 17.4 14.2 14.3 82 1.8 SE 24 33 13 18 1020.0 1018.0 0.0
28/06:00am 17.4 14.9 14.1 81 1.9 SE 20 30 11 16 1019.7 1017.6 0.0
28/05:30am 17.3 15.0 14.2 82 1.8 SE 19 28 10 15 1019.2 1017.2 0.0
28/05:00am 17.2 15.0 14.3 83 1.7 SSE 19 32 10 17 1019.2 1017.2 0.0
28/04:30am 17.2 14.8 14.5 84 1.6 SE 20 30 11 16 1019.0 1017.0 0.0
28/04:00am 17.4 15.0 14.3 82 1.8 SE 20 32 11 17 1018.6 1016.6 0.0
28/03:30am 17.3 15.1 14.8 85 1.5 SE 20 33 11 18 1018.3 1016.3 0.0
28/03:00am 17.5 15.6 15.3 87 1.3 SE 19 30 10 16 1018.3 1016.3 0.0
28/02:30am 17.6 16.1 15.4 87 1.3 SE 17 26 9 14 1018.2 1016.2 0.0
28/02:00am 17.6 15.8 15.6 88 1.2 SSE 19 30 10 16 1018.3 1016.3 0.0
28/01:30am 17.7 15.9 15.4 86 1.4 SSE 19 28 10 15 1018.5 1016.5 0.0
28/01:00am 17.9 16.0 15.2 84 1.6 SE 19 28 10 15 1018.7 1016.7 0.0
28/12:30am 17.8 15.8 15.6 87 1.3 SSE 20 28 11 15 1018.7 1016.7 0.0
28/12:00am 18.4 16.1 15.6 84 1.7 SSE 22 32 12 17 1018.8 1016.8 0.0
 
Date/Time
EST
Tmp

°C
App
Tmp
°C
Dew
Point
°C
Rel
Hum
%
Delta-T

°C
Wind Press
QNH
hPa
Press
MSL
hPa
Rain
since
9 am
mm
Dir
 
Spd
km/h
Gust
km/h
Spd
kts
Gust
kts
27/11:30pm 19.1 17.0 15.3 78 2.3 SE 20 30 11 16 1019.1 1017.1 0.0
27/11:00pm 19.7 17.8 15.2 75 2.7 SE 19 30 10 16 1019.2 1017.2 0.0
27/10:30pm 20.0 17.9 15.2 74 2.9 SE 20 32 11 17 1019.5 1017.4 0.0
27/10:00pm 20.0 18.1 15.7 76 2.6 SE 20 33 11 18 1019.6 1017.5 0.0
27/09:30pm 19.8 18.5 15.8 78 2.4 SE 17 32 9 17 1019.2 1017.2 0.0
27/09:00pm 19.8 18.5 15.8 78 2.4 SE 17 28 9 15 1018.9 1016.9 0.0
27/08:30pm 19.9 19.0 15.8 77 2.5 SE 15 24 8 13 1018.9 1016.9 0.0
27/08:00pm 20.3 19.3 15.5 74 2.9 SE 15 26 8 14 1018.8 1016.8 0.0
27/07:30pm 20.4 18.3 16.3 77 2.5 SE 22 33 12 18 1018.2 1016.2 0.0
27/07:00pm 21.2 18.9 15.6 70 3.4 SE 22 35 12 19 1018.1 1016.1 0.0
27/06:30pm 21.8 19.6 15.9 69 3.6 SE 22 39 12 21 1018.0 1016.0 0.0
27/06:05pm 22.1 18.9 16.4 70 3.5 SE 28 46 15 25 1017.5 1015.4 0.0
27/06:00pm 22.0 18.1 16.5 71 3.4 SE 32 46 17 25 1017.5 1015.4 0.0
27/05:37pm 22.5 19.5 16.7 69 3.6 SE 28 48 15 26 1016.8 1014.8 0.0
27/05:30pm 23.6 21.7 16.7 65 4.3 ESE 22 43 12 23 1016.7 1014.7 0.0
27/05:00pm 26.0 24.7 17.2 58 5.6 SE 20 43 11 23 1015.4 1013.3 0.0
27/04:30pm 27.7 26.4 18.1 56 6.2 ESE 22 39 12 21 1014.4 1012.4 0.0
27/04:00pm 27.7 25.2 18.1 56 6.2 SE 28 46 15 25 1013.5 1011.4 0.0
27/03:53pm 27.6 24.9 17.5 54 6.5 SE 28 46 15 25 1013.3 1011.2 0.0
27/03:30pm 30.1 30.2 13.8 37 10.0 E 6 22 3 12 1013.0 1010.9 0.0
27/03:00pm 30.5 29.8 14.3 37 10.0 ESE 11 17 6 9 1013.1 1011.0 0.0
27/02:30pm 30.1 29.9 13.1 35 10.3 NNE 6 13 3 7 1013.5 1011.4 0.0
27/02:00pm 29.9 29.1 13.0 35 10.2 NNE 9 15 5 8 1014.1 1012.0 0.0
27/01:30pm 30.2 29.3 13.7 36 10.1 WSW 11 20 6 11 1014.5 1012.5 0.0
27/01:00pm 30.7 30.5 13.5 35 10.5 E 7 13 4 7 1014.9 1012.9 0.0
27/12:30pm 29.8 29.6 13.5 36 9.9 ENE 7 19 4 10 1015.5 1013.4 0.0
27/12:00pm 29.3 29.9 15.4 42 8.7 S 6 19 3 10 1015.9 1013.8 0.0
27/11:30am 28.5 28.7 14.7 43 8.5 N 7 13 4 7 1016.5 1014.5 0.0
27/11:00am 27.9 28.5 15.9 48 7.5 SW 7 13 4 7 1016.9 1014.9 0.0
27/10:30am 27.0 26.8 15.6 49 7.1 W 11 17 6 9 1017.5 1015.4 0.0
27/10:00am 25.9 25.6 15.4 52 6.5 NW 11 20 6 11 1017.8 1015.7 0.0
27/09:30am 25.0 24.8 15.6 56 5.8 W 11 19 6 10 1018.1 1016.1 0.0
27/09:00am 24.1 23.9 16.6 63 4.7 NW 13 19 7 10 1018.3 1016.3 2.2
27/08:30am 23.1 23.0 16.0 64 4.4 NNW 11 15 6 8 1018.2 1016.2 2.2
27/08:00am 22.6 24.3 17.2 71 3.4 WNW 4 17 2 9 1018.2 1016.2 2.2
27/07:30am 19.7 22.6 18.1 90 1.0 CALM 0 0 0 0 1018.2 1016.2 2.2
27/07:00am 18.0 20.7 17.7 98 0.2 CALM 0 0 0 0 1018.3 1016.3 2.2
27/06:30am 16.9 19.2 16.7 99 0.1 CALM 0 0 0 0 1018.1 1016.1 2.2
27/06:00am 16.1 18.0 15.8 98 0.2 CALM 0 0 0 0 1017.8 1015.7 2.2
27/05:30am 15.5 17.2 15.2 98 0.2 CALM 0 0 0 0 1017.3 1015.2 2.2
27/05:00am 16.1 18.1 15.9 99 0.1 CALM 0 0 0 0 1017.1 1015.1 2.2
27/04:30am 16.4 18.4 16.1 98 0.2 CALM 0 0 0 0 1017.0 1015.0 2.2
27/04:00am 16.7 18.9 16.4 98 0.2 CALM 0 0 0 0 1016.7 1014.7 2.2
27/03:30am 16.8 19.0 16.5 98 0.2 CALM 0 0 0 0 1016.4 1014.4 2.2
27/03:00am 17.1 19.3 16.6 97 0.3 CALM 0 0 0 0 1016.4 1014.4 2.2
27/02:30am 16.9 19.1 16.6 98 0.2 CALM 0 0 0 0 1016.6 1014.6 2.2
27/02:00am 17.9 20.5 17.4 97 0.3 CALM 0 0 0 0 1016.7 1014.7 2.2
27/01:30am 18.2 20.4 17.4 95 0.5 N 2 6 1 3 1016.8 1014.8 2.2
27/01:00am 18.4 21.0 17.4 94 0.6 CALM 0 0 0 0 1016.9 1014.9 2.2
27/12:30am 18.6 21.0 17.1 91 0.9 CALM 0 0 0 0 1017.4 1015.3 2.2
27/12:00am 18.7 21.1 17.1 90 1.0 CALM 0 0 0 0 1017.3 1015.2 2.2
 
Date/Time
EST
Tmp

°C
App
Tmp
°C
Dew
Point
°C
Rel
Hum
%
Delta-T

°C
Wind Press
QNH
hPa
Press
MSL
hPa
Rain
since
9 am
mm
Dir
 
Spd
km/h
Gust
km/h
Spd
kts
Gust
kts
26/11:30pm 19.2 21.4 16.6 85 1.6 CALM 0 6 0 3 1017.8 1015.7 2.2
26/11:00pm 19.7 21.3 17.9 89 1.1 SE 6 11 3 6 1018.1 1016.1 2.2
26/10:30pm 20.3 23.0 18.7 90 1.0 NNW 2 11 1 6 1017.5 1015.4 2.2
26/10:00pm 20.1 21.6 19.0 93 0.7 E 9 17 5 9 1017.7 1015.6 2.2
26/09:30pm 19.9 21.4 18.8 93 0.7 N 9 15 5 8 1017.7 1015.6 2.2
26/09:00pm 20.2 22.9 18.6 90 1.0 NW 2 11 1 6 1018.4 1016.4 2.2
26/08:30pm 20.2 22.3 18.0 87 1.4 WNW 4 9 2 5 1018.3 1016.3 2.2
26/08:00pm 19.7 21.1 17.3 86 1.5 WSW 6 13 3 7 1017.8 1015.7 2.2
26/07:30pm 19.7 21.3 17.0 84 1.7 N 4 11 2 6 1017.0 1015.0 2.2
26/07:00pm 19.8 19.5 16.4 81 2.1 SE 13 20 7 11 1017.8 1015.7 2.2
26/06:30pm 20.0 20.3 16.1 78 2.4 NNE 9 13 5 7 1017.7 1015.6 2.2
26/06:00pm 20.1 22.0 17.7 86 1.5 NNE 4 9 2 5 1017.7 1015.6 2.2
26/05:30pm 20.0 17.6 17.4 85 1.6 NNE 26 33 14 18 1017.4 1015.3 1.8
26/05:00pm 22.6 23.9 19.2 81 2.2 S 11 22 6 12 1016.8 1014.8 0.0
26/04:30pm 23.6 25.3 19.3 77 2.8 S 9 13 5 7 1016.7 1014.7 0.0
26/04:00pm 23.9 25.1 19.1 74 3.1 S 11 17 6 9 1016.2 1014.2 0.0
26/03:30pm 24.4 25.1 19.7 75 3.1 S 15 22 8 12 1016.0 1013.9 0.0
26/03:00pm 26.0 27.0 19.4 67 4.3 S 13 20 7 11 1016.1 1014.1 0.0
26/02:30pm 26.3 27.6 18.4 61 5.1 SSE 9 17 5 9 1016.2 1014.2 0.0
26/02:00pm 26.3 26.8 17.4 58 5.7 ESE 11 19 6 10 1016.2 1014.2 0.0
26/01:30pm 25.9 26.8 18.5 63 4.8 SE 11 19 6 10 1016.6 1014.6 0.0
26/01:00pm 25.0 25.6 18.7 68 4.1 SSE 13 22 7 12 1017.1 1015.1 0.0
26/12:30pm 24.4 25.1 18.8 71 3.6 SE 13 22 7 12 1017.7 1015.6 0.0
26/12:00pm 23.9 24.8 18.3 71 3.6 SE 11 20 6 11 1018.1 1016.1 0.0
26/11:30am 24.1 25.0 19.2 74 3.2 SSE 13 20 7 11 1018.4 1016.4 0.0
26/11:00am 23.1 23.9 18.2 74 3.1 ENE 11 15 6 8 1018.7 1016.7 0.0
26/10:30am 23.1 24.8 18.6 76 2.9 E 7 13 4 7 1018.7 1016.7 0.0
26/10:00am 22.7 23.8 18.8 78 2.5 SE 11 20 6 11 1018.7 1016.7 0.0
26/09:30am 22.6 24.1 18.9 79 2.4 SE 9 17 5 9 1018.6 1016.6 0.0
26/09:00am 21.7 23.1 18.7 83 1.9 SE 9 15 5 8 1018.6 1016.6 -
26/08:30am 21.7 23.1 18.7 83 1.9 SE 9 19 5 10 1018.4 1016.4 -
26/08:00am 21.4 22.2 18.2 82 2.0 SSE 11 19 6 10 1018.5 1016.5 -
26/07:30am 21.7 22.3 18.6 82 2.0 SSE 13 19 7 10 1018.4 1016.4 -
26/07:00am 20.8 22.0 18.3 85 1.6 SE 9 17 5 9 1018.2 1016.2 -
26/06:30am 20.3 20.7 18.1 87 1.4 SE 13 17 7 9 1018.2 1016.2 -
26/06:00am 20.0 21.1 17.9 88 1.3 SSE 9 19 5 10 1018.2 1016.2 -
26/05:30am 19.6 19.9 17.8 89 1.1 SE 13 20 7 11 1017.9 1015.8 -
26/05:00am 19.6 19.5 17.8 89 1.1 SE 15 24 8 13 1017.6 1015.5 -
26/04:30am 19.7 19.5 17.6 88 1.3 SSE 15 24 8 13 1017.3 1015.2 -
26/04:00am 19.6 19.4 17.7 89 1.2 SSE 15 22 8 12 1016.9 1014.9 -
26/03:30am 19.3 19.1 17.5 89 1.1 SE 15 24 8 13 1016.5 1014.5 -
26/03:00am 19.1 19.4 17.8 92 0.8 SSE 13 20 7 11 1016.2 1014.2 2.0
26/02:30am 19.3 19.2 17.9 92 0.9 SE 15 22 8 12 1016.3 1014.3 -
26/02:00am 19.3 20.0 17.9 92 0.9 SE 11 20 6 11 1016.5 1014.5 -
26/01:30am 19.6 21.1 18.0 90 1.0 SE 7 13 4 7 1016.8 1014.8 -
26/01:00am 19.7 21.1 17.9 89 1.1 SE 7 11 4 6 1017.1 1015.1 -
26/12:30am 19.7 21.8 18.1 90 1.0 ENE 4 6 2 3 1017.3 1015.2 -
26/12:00am 19.9 21.6 18.5 92 0.9 SE 7 9 4 5 1017.8 1015.7 -
 
Date/Time
EST
Tmp

°C
App
Tmp
°C
Dew
Point
°C
Rel
Hum
%
Delta-T

°C
Wind Press
QNH
hPa
Press
MSL
hPa
Rain
since
9 am
mm
Dir
 
Spd
km/h
Gust
km/h
Spd
kts
Gust
kts
25/11:30pm 20.0 21.7 18.4 90 1.0 SE 7 13 4 7 1018.1 1016.1 -
25/11:00pm 19.9 21.1 18.2 90 1.1 E 9 15 5 8 1018.5 1016.5 -
25/10:30pm 19.9 19.9 18.0 89 1.2 E 15 24 8 13 1018.7 1016.7 -
25/10:00pm 20.3 22.1 18.4 89 1.2 E 6 13 3 7 1019.1 1017.1 -
25/09:30pm 20.0 21.1 18.1 89 1.2 E 9 17 5 9 1018.9 1016.9 -
25/09:00pm 19.9 20.0 18.3 90 1.0 E 15 24 8 13 1018.7 1016.7 4.0

Latest Capital City Observations: Canberra | Sydney | Melbourne | Brisbane | Adelaide | Perth | Hobart | Darwin

Other Formats:

Comma delimited format used in spreadsheet applications
http://www.bom.gov.au/fwo/IDQ60901/IDQ60901.94555.axf

JavaScript Object Notation format (JSON) in row-major order
http://www.bom.gov.au/fwo/IDQ60901/IDQ60901.94555.json